Helena — SCGL — position and weather

sailwx.info

Track history (hours):
 
Tides and Currents Weather Stations Pressure Air Temp Water Temp Dewpoint Dewpoint Depression Visibility Wind Speed Wind Dir Waves Ship Positions

Helena

Last reported at 2015-Sep-01 11:33 UTC. Time now 2015-Sep-05 05:47 UTC.
Position N 57°17' E 017°41'.

Length 169 m; draft 6.4 m.

Type: Cargo ship. MMSI: 265145000.

Date/timePositionNaut miles runAvg speedWind from/ knotsBaromVisibWave heightAir tempDewpointWater temp
2015-Sep-01 11:33N 57°17' E 017°41'11215.0
2015-Sep-01 04:07N 55°45' E 015°46'1215.9
2015-Sep-01 03:22N 55°39' E 015°27'1316.0
2015-Sep-01 02:33N 55°33' E 015°07'1615.8
2015-Sep-01 01:33N 55°25' E 014°42'1615.8
2015-Sep-01 00:33N 55°13' E 014°24'1615.9
2015-Aug-31 23:33N 55°01' E 014°08'1615.7
2015-Aug-31 22:33N 54°55' E 013°42'1515.4
2015-Aug-31 21:33N 54°51' E 013°16'1615.2
2015-Aug-31 20:28N 54°46' E 012°49'1415.2
2015-Aug-31 19:32N 54°37' E 012°30'1615.1
2015-Aug-31 18:30N 54°25' E 012°11'1415.3
2015-Aug-31 17:33N 54°20' E 011°49'1515.2
2015-Aug-31 16:33N 54°12' E 011°26'1515.2
2015-Aug-31 15:33N 54°03' E 011°05'1010.5
2015-Aug-31 14:33N 53°56' E 010°52'2 0.2
2015-Aug-31 02:33N 53°58' E 010°53'1312.5
2015-Aug-31 01:33N 54°07' E 011°08'1414.0
2015-Aug-31 00:34N 54°15' E 011°28'1414.0
2015-Aug-30 23:33N 54°22' E 011°48'1413.5
2015-Aug-30 22:33N 54°27' E 012°10'1313.2
2015-Aug-30 21:33N 54°39' E 012°20'1413.7
2015-Aug-30 20:33N 54°46' E 012°40'1313.3
2015-Aug-30 19:33N 54°51' E 013°02'1413.7
2015-Aug-30 18:33N 54°56' E 013°24'1110.8
2015-Aug-30 17:33N 54°59' E 013°42'7 6.7
2015-Aug-30 16:33N 55°02' E 013°53'7 7.0
2015-Aug-30 15:33N 55°05' E 014°04'8 7.9
2015-Aug-30 14:33N 55°11' E 014°13'9 9.3
2015-Aug-30 13:33N 55°17' E 014°24'10 9.6
2015-Aug-30 12:33N 55°25' E 014°34'10 9.6
2015-Aug-30 11:33N 55°30' E 014°48'9 9.5
2015-Aug-30 10:33N 55°35' E 015°02'9 9.5
2015-Aug-30 09:33N 55°40' E 015°17'9 9.0
2015-Aug-30 08:33N 55°45' E 015°31'9 9.2
2015-Aug-30 07:33N 55°49' E 015°45'9 9.4
2015-Aug-30 06:33N 55°54' E 015°59'10 9.5
2015-Aug-30 05:33N 55°59' E 016°14'14 9.6
2015-Aug-30 04:08N 56°06' E 016°35'26 8.8
2015-Aug-30 01:13N 56°30' E 016°54'6 9.5
2015-Aug-30 00:33N 56°35' E 016°57'9 9.5
2015-Aug-29 23:34N 56°45' E 017°01'9 9.3
2015-Aug-29 22:33N 56°54' E 017°06'9 9.1
2015-Aug-29 21:33N 57°02' E 017°11'9 9.4
2015-Aug-29 20:33N 57°11' E 017°16'9 9.2
2015-Aug-29 19:33N 57°19' E 017°26'9 9.2
2015-Aug-29 18:33N 57°27' E 017°34'10 9.5
2015-Aug-29 17:33N 57°35' E 017°43'10 9.9
2015-Aug-29 16:33N 57°43' E 017°53'  
2015-Aug-25 14:04N 58°01' E 018°26'2516.8
2015-Aug-25 12:33N 57°39' E 018°02'2116.9
2015-Aug-25 11:20N 57°21' E 017°44'1417.5
2015-Aug-25 10:33N 57°08' E 017°35'1716.9
2015-Aug-25 09:33N 56°53' E 017°23'1616.4
2015-Aug-25 08:33N 56°37' E 017°13'1716.6
2015-Aug-25 07:33N 56°22' E 017°01'1616.4
2015-Aug-25 06:34N 56°07' E 016°49'1615.7
2015-Aug-25 05:33N 55°58' E 016°27'1616.1
2015-Aug-25 04:33N 55°50' E 016°02'1616.2
2015-Aug-25 03:34N 55°41' E 015°37'1616.3
2015-Aug-25 02:33N 55°33' E 015°13'1616.1
2015-Aug-25 01:33N 55°25' E 014°47'1616.0
2015-Aug-25 00:34N 55°15' E 014°27'1616.3
2015-Aug-24 23:34N 55°02' E 014°10'1515.2
2015-Aug-24 22:33N 54°56' E 013°45'1615.7
2015-Aug-24 21:32N 54°51' E 013°19'1515.6
2015-Aug-24 20:33N 54°46' E 012°53'3014.8
2015-Aug-24 18:33N 54°27' E 012°14'1514.7
2015-Aug-24 17:33N 54°21' E 011°51'1615.8
2015-Aug-24 16:33N 54°12' E 011°28'1616.0
2015-Aug-24 15:33N 54°04' E 011°05'9 0.8
2015-Aug-24 03:33N 53°58' E 010°53'1212.4
2015-Aug-24 02:33N 54°06' E 011°08'1413.8
2015-Aug-24 01:33N 54°15' E 011°28'1413.6
2015-Aug-24 00:33N 54°22' E 011°47'1313.2
2015-Aug-23 23:34N 54°27' E 012°08'1313.1
2015-Aug-23 22:33N 54°38' E 012°19'1413.8
2015-Aug-23 21:33N 54°46' E 012°39'1313.5
2015-Aug-23 20:34N 54°51' E 013°00'1513.6
2015-Aug-23 19:27N 54°56' E 013°25'1213.9
2015-Aug-23 18:33N 54°60' E 013°46'1313.3
2015-Aug-23 17:34N 55°06' E 014°07'9 8.7
2015-Aug-23 16:33N 55°13' E 014°16'10 9.5
2015-Aug-23 15:33N 55°20' E 014°27'10 9.8
2015-Aug-23 14:33N 55°27' E 014°39'1010.0
2015-Aug-23 13:33N 55°32' E 014°54'1010.2
2015-Aug-23 12:33N 55°37' E 015°09'1010.1
2015-Aug-23 11:33N 55°42' E 015°25'10 9.9
2015-Aug-23 10:33N 55°47' E 015°40'51 8.5
2015-Aug-23 04:32N 56°21' E 016°49'9 8.8
2015-Aug-23 03:30N 56°30' E 016°54'8 8.3
2015-Aug-23 02:29N 56°38' E 016°58'8 8.5
2015-Aug-23 01:33N 56°46' E 017°02'9 8.6
2015-Aug-23 00:33N 56°54' E 017°06'9 8.6
2015-Aug-22 23:33N 57°02' E 017°10'8 8.4
2015-Aug-22 22:33N 57°10' E 017°15'8 8.2
2015-Aug-22 21:33N 57°17' E 017°23'8 8.3
2015-Aug-22 20:33N 57°24' E 017°31'9 8.5
2015-Aug-22 19:33N 57°32' E 017°39'8 8.3
2015-Aug-22 18:33N 57°39' E 017°48'9 8.5
2015-Aug-22 17:33N 57°46' E 017°55'9 8.9
2015-Aug-22 16:33N 57°54' E 018°04'9 8.8
2015-Aug-22 15:33N 58°01' E 018°13'9 8.7
2015-Aug-22 14:33N 58°08' E 018°22'9 8.7
2015-Aug-22 13:33N 58°16' E 018°31'9 8.7
2015-Aug-22 12:33N 58°23' E 018°39'  
Track history (hours):
 
Tides and Currents Weather Stations Pressure Air Temp Water Temp Dewpoint Dewpoint Depression Visibility Wind Speed Wind Dir Waves Ship Positions

Helena

Last reported at 2015-Sep-01 11:33 UTC. Time now 2015-Sep-05 05:47 UTC.
Position N 57°17' E 017°41'.

Length 169 m; draft 6.4 m.

Type: Cargo ship. MMSI: 265145000.

Date/timePositionNaut miles runAvg speedWind from/ knotsBaromVisibWave heightAir tempDewpointWater temp
2015-Sep-01 11:33N 57°17' E 017°41'11215.0
2015-Sep-01 04:07N 55°45' E 015°46'1215.9
2015-Sep-01 03:22N 55°39' E 015°27'1316.0
2015-Sep-01 02:33N 55°33' E 015°07'1615.8
2015-Sep-01 01:33N 55°25' E 014°42'1615.8
2015-Sep-01 00:33N 55°13' E 014°24'1615.9
2015-Aug-31 23:33N 55°01' E 014°08'1615.7
2015-Aug-31 22:33N 54°55' E 013°42'1515.4
2015-Aug-31 21:33N 54°51' E 013°16'1615.2
2015-Aug-31 20:28N 54°46' E 012°49'1415.2
2015-Aug-31 19:32N 54°37' E 012°30'1615.1
2015-Aug-31 18:30N 54°25' E 012°11'1415.3
2015-Aug-31 17:33N 54°20' E 011°49'1515.2
2015-Aug-31 16:33N 54°12' E 011°26'1515.2
2015-Aug-31 15:33N 54°03' E 011°05'1010.5
2015-Aug-31 14:33N 53°56' E 010°52'2 0.2
2015-Aug-31 02:33N 53°58' E 010°53'1312.5
2015-Aug-31 01:33N 54°07' E 011°08'1414.0
2015-Aug-31 00:34N 54°15' E 011°28'1414.0
2015-Aug-30 23:33N 54°22' E 011°48'1413.5
2015-Aug-30 22:33N 54°27' E 012°10'1313.2
2015-Aug-30 21:33N 54°39' E 012°20'1413.7
2015-Aug-30 20:33N 54°46' E 012°40'1313.3
2015-Aug-30 19:33N 54°51' E 013°02'1413.7
2015-Aug-30 18:33N 54°56' E 013°24'1110.8
2015-Aug-30 17:33N 54°59' E 013°42'7 6.7
2015-Aug-30 16:33N 55°02' E 013°53'7 7.0
2015-Aug-30 15:33N 55°05' E 014°04'8 7.9
2015-Aug-30 14:33N 55°11' E 014°13'9 9.3
2015-Aug-30 13:33N 55°17' E 014°24'10 9.6
2015-Aug-30 12:33N 55°25' E 014°34'10 9.6
2015-Aug-30 11:33N 55°30' E 014°48'9 9.5
2015-Aug-30 10:33N 55°35' E 015°02'9 9.5
2015-Aug-30 09:33N 55°40' E 015°17'9 9.0
2015-Aug-30 08:33N 55°45' E 015°31'9 9.2
2015-Aug-30 07:33N 55°49' E 015°45'9 9.4
2015-Aug-30 06:33N 55°54' E 015°59'10 9.5
2015-Aug-30 05:33N 55°59' E 016°14'14 9.6
2015-Aug-30 04:08N 56°06' E 016°35'26 8.8
2015-Aug-30 01:13N 56°30' E 016°54'6 9.5
2015-Aug-30 00:33N 56°35' E 016°57'9 9.5
2015-Aug-29 23:34N 56°45' E 017°01'9 9.3
2015-Aug-29 22:33N 56°54' E 017°06'9 9.1
2015-Aug-29 21:33N 57°02' E 017°11'9 9.4
2015-Aug-29 20:33N 57°11' E 017°16'9 9.2
2015-Aug-29 19:33N 57°19' E 017°26'9 9.2
2015-Aug-29 18:33N 57°27' E 017°34'10 9.5
2015-Aug-29 17:33N 57°35' E 017°43'10 9.9
2015-Aug-29 16:33N 57°43' E 017°53'  
2015-Aug-25 14:04N 58°01' E 018°26'2516.8
2015-Aug-25 12:33N 57°39' E 018°02'2116.9
2015-Aug-25 11:20N 57°21' E 017°44'1417.5
2015-Aug-25 10:33N 57°08' E 017°35'1716.9
2015-Aug-25 09:33N 56°53' E 017°23'1616.4
2015-Aug-25 08:33N 56°37' E 017°13'1716.6
2015-Aug-25 07:33N 56°22' E 017°01'1616.4
2015-Aug-25 06:34N 56°07' E 016°49'1615.7
2015-Aug-25 05:33N 55°58' E 016°27'1616.1
2015-Aug-25 04:33N 55°50' E 016°02'1616.2
2015-Aug-25 03:34N 55°41' E 015°37'1616.3
2015-Aug-25 02:33N 55°33' E 015°13'1616.1
2015-Aug-25 01:33N 55°25' E 014°47'1616.0
2015-Aug-25 00:34N 55°15' E 014°27'1616.3
2015-Aug-24 23:34N 55°02' E 014°10'1515.2
2015-Aug-24 22:33N 54°56' E 013°45'1615.7
2015-Aug-24 21:32N 54°51' E 013°19'1515.6
2015-Aug-24 20:33N 54°46' E 012°53'3014.8
2015-Aug-24 18:33N 54°27' E 012°14'1514.7
2015-Aug-24 17:33N 54°21' E 011°51'1615.8
2015-Aug-24 16:33N 54°12' E 011°28'1616.0
2015-Aug-24 15:33N 54°04' E 011°05'9 0.8
2015-Aug-24 03:33N 53°58' E 010°53'1212.4
2015-Aug-24 02:33N 54°06' E 011°08'1413.8
2015-Aug-24 01:33N 54°15' E 011°28'1413.6
2015-Aug-24 00:33N 54°22' E 011°47'1313.2
2015-Aug-23 23:34N 54°27' E 012°08'1313.1
2015-Aug-23 22:33N 54°38' E 012°19'1413.8
2015-Aug-23 21:33N 54°46' E 012°39'1313.5
2015-Aug-23 20:34N 54°51' E 013°00'1513.6
2015-Aug-23 19:27N 54°56' E 013°25'1213.9
2015-Aug-23 18:33N 54°60' E 013°46'1313.3
2015-Aug-23 17:34N 55°06' E 014°07'9 8.7
2015-Aug-23 16:33N 55°13' E 014°16'10 9.5
2015-Aug-23 15:33N 55°20' E 014°27'10 9.8
2015-Aug-23 14:33N 55°27' E 014°39'1010.0
2015-Aug-23 13:33N 55°32' E 014°54'1010.2
2015-Aug-23 12:33N 55°37' E 015°09'1010.1
2015-Aug-23 11:33N 55°42' E 015°25'10 9.9
2015-Aug-23 10:33N 55°47' E 015°40'51 8.5
2015-Aug-23 04:32N 56°21' E 016°49'9 8.8
2015-Aug-23 03:30N 56°30' E 016°54'8 8.3
2015-Aug-23 02:29N 56°38' E 016°58'8 8.5
2015-Aug-23 01:33N 56°46' E 017°02'9 8.6
2015-Aug-23 00:33N 56°54' E 017°06'9 8.6
2015-Aug-22 23:33N 57°02' E 017°10'8 8.4
2015-Aug-22 22:33N 57°10' E 017°15'8 8.2
2015-Aug-22 21:33N 57°17' E 017°23'8 8.3
2015-Aug-22 20:33N 57°24' E 017°31'9 8.5
2015-Aug-22 19:33N 57°32' E 017°39'8 8.3
2015-Aug-22 18:33N 57°39' E 017°48'9 8.5
2015-Aug-22 17:33N 57°46' E 017°55'9 8.9
2015-Aug-22 16:33N 57°54' E 018°04'9 8.8
2015-Aug-22 15:33N 58°01' E 018°13'9 8.7
2015-Aug-22 14:33N 58°08' E 018°22'9 8.7
2015-Aug-22 13:33N 58°16' E 018°31'9 8.7
2015-Aug-22 12:33N 58°23' E 018°39'  

Dump ship's entire track history